South Channel Island, Victoria

9:36 AM EST on August 21, 2014 (GMT +1000)
Blairgowrie | Change Station
CLOSE
Current Station
Personal Weather Station
Location: Blairgowrie, VICTORIA
Elevation: 36 ft
Nearby Weather Stations

Elev 36 ft 38.37 °S, 144.79 °E | Updated 60 seconds ago

Scattered Clouds
Scattered Clouds
55.9 °F
Feels Like 55.9 °F
N
6.0
Wind Variable Wind from NW
Gusts 10.0 mph

Today
High -- | Low -- °F
--% Chance of Precip.
Yesterday
High -- | Low -- °F
Precip. -- in
6:59 AM 5:49 PM
Waning Crescent, 18% visible
Pressure 30.39 in
Visibility 6.2 miles
Clouds Scattered Clouds 5200 ft
Dew Point 45 °F
Humidity 67%
Rainfall 0.00 in
Snow Depth Not available.
UV 1.0 out of 12
Pollen Not available.
Air Quality Not available.
Flu Activity Not available.
METAR YMAV 202300Z AUTO 29004KT 9999 // SCT052 09/09 Q1029

More Conditions Fewer Conditions

Pressure 30.39 in
Visibility 6.2 miles
Clouds Scattered Clouds 5200 ft
Dew Point 45 °F
Humidity 67%
Rainfall 0.00 in
Snow Depth Not available.
UV 1.0 out of 12
Pollen Not available.
Air Quality Not available.
Flu Activity Not available.
METAR YMAV 202300Z AUTO 29004KT 9999 // SCT052 09/09 Q1029

More Conditions Fewer Conditions

10-Day Weather Forecast

Almanac

Astronomy

Aug. 21, 2014 Rise Set
Actual Time 6:59 AM EST 5:49 PM EST
Civil Twilight 6:32 AM EST 6:16 PM EST
Nautical Twilight 6:01 AM EST 6:47 PM EST
Astronomical Twilight 5:30 AM EST 7:18 PM EST
Moon 3:45 AM EST (8/21) 2:03 PM EST (8/21)
Length of Visible Light 11h 44m
Length of Day
10h 50m
Tomorrow will be 2m 13s longer.
Waning Crescent, 18% of the Moon is Illuminated
Aug 20
Waning Crescent
Aug 25
New
Sep 2
First Quarter
Sep 8
Full
Sep 15
Last Quarter

Yesterday's Extremes

Country Highs Country Lows

Community

WunderPhotos

Upload Photos

1,745,799 photos uploaded!

Nearby

Snow Depth

Not available.

Earthquake Activity

City Distance Mag. Time & Date
No recent earthquake activity has been reported nearby.
Minimum magnitude displayed is 2.5.

Coastal Water Temperatures

Place Temperature
No Stations Reporting

Nearby Weather Stations